»·PEaware :: N29239 KOXR-KCLR

N29239 :: KOXR-KCLR

FLIGHT INFORMATION

Flight Status: Arrived
Operator: Privately registered:
United States
More flights under this callsign
Pilot: Evan M. (27470)
Aircraft: SOCATA TBM-900
(TBM9)
More flights by this aircraft type
Origin: KOXR Oxnard
United States
Destination: KCLR Cliff Hatfield Meml
United States
More flights between these airports :: More routes between these airports
Route: VTU V208 JLI
File this flight plan on PilotEdge
Remarks:
Altitude:
(Current/Filed)
17,000ft
Speed:
(Current/Filed)
250kts
Departed: 07-Feb-21 10:09 AM
Arrived: 07-Feb-21 11:01 AM
Distance/Time
Traveled:
195nm/0:52
Distance/Time
To Go:
Arrived

Flight Plot

Page will automatically refresh every two minutes.

Flight plan parsing failed; only flown route is shown


Map Options




Map Legend


Flown Route
Filed Route
Departure Airport
Arrival Airport
Navaid (VOR, NDB)
Fix

Horizontal Profiles

Position Reports

Time Latitude Longitude Heading Altitude Ground
Speed
07-Feb-21 09:47 34.199283 -119.202622 188 46ft 0kts
07-Feb-21 09:48 34.199283 -119.202622 188 46ft 0kts
07-Feb-21 09:49 34.199283 -119.202622 188 46ft 0kts
07-Feb-21 09:50 34.199283 -119.202622 188 46ft 0kts
07-Feb-21 09:51 34.199283 -119.202622 188 46ft 0kts
07-Feb-21 09:52 34.199283 -119.202622 188 46ft 0kts
07-Feb-21 09:53 34.199283 -119.202622 188 46ft 0kts
07-Feb-21 09:54 34.199283 -119.202622 188 46ft 0kts
07-Feb-21 09:55 34.199283 -119.202622 188 46ft 0kts
07-Feb-21 09:56 34.199283 -119.202622 188 46ft 0kts
07-Feb-21 09:57 34.199283 -119.202622 188 46ft 0kts
07-Feb-21 09:58 34.199283 -119.202622 188 46ft 0kts
07-Feb-21 09:59 34.199283 -119.202622 188 46ft 0kts
07-Feb-21 10:00 34.199283 -119.202622 188 46ft 0kts
07-Feb-21 10:01 34.199283 -119.202622 188 46ft 0kts
07-Feb-21 10:02 34.199283 -119.202622 188 46ft 0kts
07-Feb-21 10:03 34.199283 -119.202622 188 46ft 0kts
07-Feb-21 10:04 34.199772 -119.201700 90 47ft 9kts
07-Feb-21 10:05 34.199913 -119.197564 12 44ft 0kts
07-Feb-21 10:06 34.199913 -119.197564 12 44ft 0kts
07-Feb-21 10:07 34.199913 -119.197564 12 44ft 0kts
07-Feb-21 10:08 34.200815 -119.211877 271 199ft 127kts
07-Feb-21 10:09 34.199957 -119.253012 268 2762ft 116kts
07-Feb-21 10:10 34.198164 -119.292508 268 5102ft 119kts
07-Feb-21 10:11 34.183406 -119.329474 204 6868ft 182kts
07-Feb-21 10:12 34.123174 -119.310655 152 7022ft 260kts
07-Feb-21 10:13 34.060094 -119.264265 138 6997ft 271kts
07-Feb-21 10:14 33.990205 -119.232070 155 7006ft 272kts
07-Feb-21 10:15 33.932821 -119.175018 126 7022ft 272kts
07-Feb-21 10:16 33.896538 -119.115425 124 10462ft 172kts
07-Feb-21 10:17 33.866800 -119.075054 130 13135ft 162kts
07-Feb-21 10:18 33.836255 -119.032886 117 15525ft 172kts
07-Feb-21 10:19 33.820911 -118.970822 114 16953ft 246kts
07-Feb-21 10:21 33.758445 -118.914858 156 17027ft 311kts
07-Feb-21 10:22 33.691404 -118.845289 130 16985ft 328kts
07-Feb-21 10:23 33.632747 -118.761120 129 17003ft 329kts
07-Feb-21 10:24 33.572901 -118.678340 133 17011ft 329kts
07-Feb-21 10:25 33.510566 -118.597758 132 17013ft 329kts
07-Feb-21 10:26 33.449539 -118.515457 131 17019ft 329kts
07-Feb-21 10:27 33.388745 -118.433180 131 17029ft 330kts
07-Feb-21 10:28 33.354152 -118.335240 91 17007ft 324kts
07-Feb-21 10:29 33.348579 -118.228251 89 17012ft 322kts
07-Feb-21 10:30 33.338872 -118.121593 94 17012ft 323kts
07-Feb-21 10:31 33.325692 -118.015190 95 17012ft 323kts
07-Feb-21 10:32 33.312507 -117.908814 95 17017ft 323kts
07-Feb-21 10:33 33.299241 -117.802643 96 17013ft 323kts
07-Feb-21 10:34 33.285844 -117.696191 96 17004ft 322kts
07-Feb-21 10:35 33.272435 -117.590359 96 17003ft 321kts
07-Feb-21 10:36 33.259007 -117.485169 96 17002ft 320kts
07-Feb-21 10:36 33.247776 -117.397737 96 17005ft 319kts
07-Feb-21 10:38 33.232041 -117.276030 96 17012ft 317kts
07-Feb-21 10:38 33.220756 -117.189286 96 17009ft 316kts
07-Feb-21 10:40 33.204851 -117.068111 97 17017ft 315kts
07-Feb-21 10:40 33.193482 -116.981752 97 16985ft 318kts
07-Feb-21 10:41 33.179671 -116.877772 97 16952ft 317kts
07-Feb-21 10:42 33.165784 -116.773820 97 16981ft 316kts
07-Feb-21 10:43 33.151872 -116.670251 97 16968ft 316kts
07-Feb-21 10:44 33.140438 -116.565683 93 16903ft 316kts
07-Feb-21 10:45 33.139812 -116.461814 88 15711ft 306kts
07-Feb-21 10:46 33.139073 -116.361259 89 13783ft 301kts
07-Feb-21 10:47 33.138337 -116.263038 90 11777ft 290kts
07-Feb-21 10:48 33.137577 -116.169246 90 9506ft 270kts
07-Feb-21 10:49 33.136779 -116.083093 90 7271ft 251kts
07-Feb-21 10:50 33.136037 -116.005871 91 6926ft 213kts
07-Feb-21 10:51 33.135311 -115.934913 91 5714ft 214kts
07-Feb-21 10:52 33.134563 -115.865629 91 4506ft 202kts
07-Feb-21 10:53 33.133813 -115.799506 91 3298ft 195kts
07-Feb-21 10:54 33.133079 -115.736685 91 2450ft 178kts
07-Feb-21 10:55 33.132372 -115.679932 90 1937ft 167kts
07-Feb-21 10:56 33.131692 -115.626130 90 1428ft 151kts
07-Feb-21 10:57 33.131761 -115.579192 89 905ft 123kts
07-Feb-21 10:58 33.131698 -115.547337 91 166ft 90kts
07-Feb-21 10:59 33.131396 -115.522654 91 -185ft 48kts
07-Feb-21 11:00 33.130706 -115.516415 270 -174ft 9kts
07-Feb-21 11:01 33.130759 -115.520823 269 -180ft 14kts
07-Feb-21 11:02 33.130573 -115.524972 131 -183ft 6kts
07-Feb-21 11:03 33.128045 -115.521965 134 -179ft 18kts
07-Feb-21 11:04 33.127409 -115.522289 98 -178ft 0kts
07-Feb-21 11:05 33.127409 -115.522289 98 -178ft 0kts
07-Feb-21 11:06 33.127409 -115.522289 98 -178ft 0kts
07-Feb-21 11:07 33.127409 -115.522289 98 -178ft 0kts
07-Feb-21 11:08 33.127409 -115.522289 98 -178ft 0kts
07-Feb-21 11:09 33.127409 -115.522289 98 -178ft 0kts
07-Feb-21 11:10 33.127409 -115.522289 98 -178ft 0kts
07-Feb-21 11:11 33.127409 -115.522289 98 -178ft 0kts
07-Feb-21 11:12 33.127409 -115.522289 98 -178ft 0kts
07-Feb-21 11:13 33.127409 -115.522289 98 -178ft 0kts
07-Feb-21 11:14 33.127409 -115.522289 98 -178ft 0kts

Navigation Log

Ident Type
Flight plan parsing failed, navigation log unavailable